Olton, Texas
Current Conditions -  °F | °C
As of 7:15 PM on Friday 19 Dec 2014 (Local Time) from KPVW Reporting Station
Overcast Overcast  
Wind Chill: 40°   Ceiling: 1400
Heat Index: 40°   Visibility: 10mi
Dew Point: 37°   Wind: 3mph
Humidity: 91%   Direction: 120°ESE
Pressure: 30.13"   Gusts: NA
Location:  34.18°N, 102.13°W
Report Text: KPVW 200115Z AUTO 12003KT 10SM SCT009 OVC014 04/03 A3013 RMK AO2 T00430029
Loading
Personal Weather Stations






























Interactive Weather Map New forecast layout! Learn more

10-Day Weather Forecast

Advertisements
Track Severe Weather on mobile